Date,TemperatureHighF,TemperatureAvgF,TemperatureLowF,DewpointHighF,DewpointAvgF,DewpointLowF,HumidityHigh,HumidityAvg,HumidityLow,PressureMaxIn,PressureMinIn,WindSpeedMaxMPH,WindSpeedAvgMPH,GustSpeedMaxMPH,PrecipitationSumIn
2013-2-1,20.5,18.4,16.6,16.0,11.5,6.0,90,75,54,30.21,29.71,23,11,29,0.10
2013-2-2,19.7,16.9,14.0,16.0,10.6,6.0,89,76,67,30.22,30.01,19,10,22,0.00
2013-2-3,23.7,17.9,11.4,20.0,13.4,8.0,88,82,71,30.01,29.80,11,4,21,0.00
2013-2-4,20.6,18.6,16.4,13.0,9.8,4.0,85,69,50,29.96,29.86,23,8,27,0.00
2013-2-5,25.2,19.4,11.4,18.0,13.4,8.0,87,78,70,30.00,29.87,9,3,12,0.00
2013-2-6,26.5,22.3,12.6,24.0,14.5,5.0,93,73,47,30.41,29.90,18,6,25,0.00
2013-2-7,31.0,23.2,12.7,19.0,12.9,8.0,82,66,54,30.50,30.17,13,4,20,0.00
2013-2-8,34.6,29.8,19.7,29.0,25.1,17.0,95,83,61,30.16,29.80,18,7,27,0.00
2013-2-9,19.2,16.1,10.0,18.0,14.0,8.0,93,91,89,30.45,29.98,11,5,18,0.00
2013-2-10,35.6,23.1,8.7,21.0,13.0,6.0,92,69,40,30.48,30.07,23,6,37,0.07
2013-2-11,42.3,36.4,33.5,37.0,28.7,17.0,92,74,49,30.07,29.59,33,15,41,0.06
2013-2-12,35.2,32.7,30.1,28.0,25.2,22.0,85,74,64,29.97,29.73,23,12,35,0.06
2013-2-13,35.2,30.6,25.4,25.0,22.6,20.0,84,73,58,29.93,29.74,9,2,11,0.00
2013-2-14,39.0,31.6,23.6,33.0,26.1,20.0,89,80,60,29.95,29.80,18,6,28,0.07
2013-2-15,38.4,34.5,25.5,32.0,25.4,18.0,87,70,59,30.05,29.80,18,9,26,0.08
2013-2-16,26.8,22.5,18.4,19.0,15.1,11.0,90,73,58,30.06,29.93,8,3,13,0.00
2013-2-17,18.8,13.8,10.8,11.0,7.5,3.0,88,76,66,30.16,29.89,23,8,30,0.00
2013-2-18,30.3,19.2,8.9,14.0,11.0,6.0,89,72,50,30.32,30.02,16,6,21,0.00
2013-2-19,36.7,33.0,26.0,32.0,23.7,14.0,92,70,52,30.02,29.59,27,13,35,0.07
2013-2-20,25.8,21.6,19.0,19.0,13.9,10.0,90,72,60,30.05,29.77,29,15,31,0.07
2013-2-21,19.3,16.1,12.4,16.0,11.8,7.0,91,83,75,30.45,30.01,20,9,27,0.00
2013-2-22,34.7,26.2,15.8,26.0,19.9,13.0,98,78,63,30.43,30.09,22,7,34,0.00
2013-2-23,37.3,34.2,30.8,34.0,30.2,25.0,96,85,73,30.09,29.88,22,6,34,0.08
2013-2-24,30.8,29.8,28.5,27.0,25.0,22.0,93,82,72,30.04,29.86,15,6,21,0.08
2013-2-25,35.8,32.2,29.2,29.0,26.3,24.0,92,79,65,30.25,30.05,11,5,17,0.00
2013-2-26,41.5,33.9,25.7,31.0,26.6,23.0,91,75,57,30.26,29.89,22,7,28,0.10
2013-2-27,36.5,33.7,31.6,35.0,31.9,30.0,96,93,86,29.90,29.55,13,5,25,0.62
2013-2-28,36.6,33.8,31.3,34.0,31.6,30.0,95,91,80,29.70,29.56,12,5,14,0.01